createdAt,value
2019-06-07T00:00:40.094Z,12.13
2019-06-07T00:03:23.992Z,11.50
2019-06-07T00:05:45.730Z,11.67
2019-06-07T00:08:24.947Z,12.13
2019-06-07T00:10:52.320Z,11.60
2019-06-07T00:13:24.289Z,12.00
2019-06-07T00:15:56.243Z,12.30
2019-06-07T00:18:28.524Z,11.50
2019-06-07T00:21:00.643Z,11.00
2019-06-07T00:23:32.943Z,12.00
2019-06-07T00:26:05.447Z,11.97
2019-06-07T00:28:37.839Z,12.60
2019-06-07T00:31:11.544Z,11.87
2019-06-07T00:33:43.535Z,11.77
2019-06-07T00:36:17.743Z,11.90
2019-06-07T00:38:50.423Z,12.20
2019-06-07T00:41:22.481Z,11.90
2019-06-07T00:43:54.411Z,12.70
2019-06-07T00:46:26.690Z,12.07
2019-06-07T00:48:58.835Z,11.97
2019-06-07T00:51:49.450Z,12.47
2019-06-07T00:54:05.459Z,12.73
2019-06-07T00:56:37.428Z,11.77
2019-06-07T00:59:11.661Z,11.80
2019-06-07T01:01:43.108Z,12.50
2019-06-07T01:04:17.769Z,10.93
2019-06-07T01:06:49.711Z,12.30
2019-06-07T01:09:23.981Z,11.70
2019-06-07T01:11:56.158Z,12.43
2019-06-07T01:14:29.046Z,12.50
2019-06-07T01:17:23.677Z,12.23
2019-06-07T01:19:46.332Z,11.60
2019-06-07T01:22:20.009Z,13.50
2019-06-07T01:24:51.978Z,12.13
2019-06-07T01:27:25.537Z,12.67
2019-06-07T01:29:57.704Z,12.13
2019-06-07T01:32:31.812Z,13.20
2019-06-07T01:35:05.768Z,14.23
2019-06-07T01:37:37.927Z,13.07
2019-06-07T01:40:11.396Z,11.93
2019-06-07T01:42:43.355Z,13.30
2019-06-07T01:45:18.093Z,12.87
2019-06-07T01:47:49.672Z,12.93
2019-06-07T01:50:24.794Z,14.00
2019-06-07T01:52:55.656Z,14.30
2019-06-07T01:55:32.344Z,13.50
2019-06-07T01:58:02.755Z,14.57
2019-06-07T02:00:35.012Z,13.87
2019-06-07T02:03:07.224Z,13.90
2019-06-07T02:05:39.160Z,14.13
2019-06-07T02:08:11.132Z,13.93
2019-06-07T02:10:43.079Z,14.20
2019-06-07T02:13:15.023Z,13.53
2019-06-07T02:15:48.055Z,14.80
2019-06-07T02:18:21.775Z,15.33
2019-06-07T02:20:53.920Z,15.50
2019-06-07T02:23:28.283Z,12.80
2019-06-07T02:26:00.764Z,15.30
2019-06-07T02:28:44.720Z,16.60
2019-06-07T02:31:07.247Z,15.17
2019-06-07T02:33:40.393Z,15.20
2019-06-07T02:36:12.528Z,15.23
2019-06-07T02:38:44.706Z,16.20
2019-06-07T02:41:16.980Z,15.60
2019-06-07T02:43:53.384Z,14.77
2019-06-07T02:46:36.386Z,14.40
2019-06-07T02:49:00.879Z,14.23
2019-06-07T02:51:40.704Z,15.40
2019-06-07T02:54:06.932Z,15.50
2019-06-07T02:56:56.096Z,15.20
2019-06-07T02:59:12.572Z,15.10
2019-06-07T03:01:44.804Z,15.67
2019-06-07T03:04:17.262Z,14.87
2019-06-07T03:06:51.350Z,14.20
2019-06-07T03:09:24.012Z,14.07
2019-06-07T03:11:59.104Z,15.43
2019-06-07T03:14:35.984Z,16.10
2019-06-07T03:17:13.892Z,13.60
2019-06-07T03:19:49.627Z,15.10
2019-06-07T03:22:21.872Z,16.70
2019-06-07T03:24:56.316Z,15.03
2019-06-07T03:27:37.116Z,16.40
2019-06-07T03:32:22.293Z,16.57
2019-06-07T03:34:54.258Z,16.10
2019-06-07T03:37:30.778Z,17.33
2019-06-07T03:40:18.268Z,15.20
2019-06-07T03:42:55.912Z,15.17
2019-06-07T03:45:28.987Z,16.30
2019-06-07T03:48:01.705Z,16.57
2019-06-07T03:50:38.361Z,13.67
2019-06-07T03:53:08.293Z,15.27
2019-06-07T03:55:41.365Z,15.03
2019-06-07T04:00:47.256Z,15.53
2019-06-07T04:03:33.330Z,15.20
2019-06-07T04:05:54.064Z,15.97
2019-06-07T04:08:45.616Z,16.50
2019-06-07T04:11:17.648Z,16.07
2019-06-07T04:13:49.616Z,17.67
2019-06-07T04:16:21.585Z,18.23
2019-06-07T04:18:53.876Z,17.27
2019-06-07T04:21:26.013Z,17.20
2019-06-07T04:23:58.272Z,15.33
2019-06-07T04:26:31.477Z,18.17
2019-06-07T04:31:41.964Z,17.07
2019-06-07T04:34:11.737Z,16.10
2019-06-07T04:36:58.746Z,16.40
2019-06-07T04:39:22.248Z,16.33
2019-06-07T04:41:58.065Z,16.20
2019-06-07T04:44:31.189Z,13.60
2019-06-07T04:47:05.386Z,15.00
2019-06-07T04:49:43.358Z,16.30
2019-06-07T04:52:15.190Z,16.23
2019-06-07T04:54:47.146Z,14.40
2019-06-07T04:57:20.220Z,17.20
2019-06-07T05:00:11.908Z,17.47
2019-06-07T05:02:26.125Z,18.60
2019-06-07T05:04:59.036Z,20.07
2019-06-07T05:07:32.994Z,21.63
2019-06-07T05:10:06.096Z,19.70
2019-06-07T05:12:40.444Z,20.17
2019-06-07T05:15:13.010Z,19.67
2019-06-07T05:17:45.417Z,19.67
2019-06-07T05:20:20.125Z,19.03
2019-06-07T05:22:52.280Z,18.50
2019-06-07T05:25:24.220Z,17.50
2019-06-07T05:27:56.181Z,15.80
2019-06-07T05:33:14.310Z,13.30
2019-06-07T05:35:46.436Z,12.50
2019-06-07T05:38:18.404Z,12.87
2019-06-07T05:40:50.366Z,11.90
2019-06-07T05:43:28.860Z,12.80
2019-06-07T05:46:00.811Z,11.70
2019-06-07T05:48:34.083Z,11.80
2019-06-07T05:51:06.378Z,10.53
2019-06-07T05:53:40.264Z,11.20
2019-06-07T05:56:13.064Z,10.60
2019-06-07T05:58:45.869Z,10.93
2019-06-07T06:03:53.572Z,9.03
2019-06-07T06:06:26.013Z,8.73
2019-06-07T06:09:13.463Z,8.97
2019-06-07T06:11:45.715Z,8.10
2019-06-07T06:14:08.300Z,8.23
2019-06-07T06:16:43.882Z,8.73
2019-06-07T06:19:14.564Z,8.03
2019-06-07T06:21:48.620Z,9.10
2019-06-07T06:24:21.768Z,8.73
2019-06-07T06:27:00.224Z,8.33
2019-06-07T06:29:27.888Z,8.70
2019-06-07T06:32:40.467Z,7.87
2019-06-07T06:34:33.497Z,7.20
2019-06-07T06:37:05.794Z,7.17
2019-06-07T06:39:39.557Z,8.70
2019-06-07T06:42:12.034Z,8.50
2019-06-07T06:44:47.110Z,9.00
2019-06-07T06:47:19.193Z,8.13
2019-06-07T06:49:54.347Z,7.97
2019-06-07T06:52:26.421Z,8.07
2019-06-07T06:55:00.977Z,6.50
2019-06-07T06:57:32.040Z,6.40
2019-06-07T07:00:06.471Z,6.63
2019-06-07T07:03:26.916Z,6.57
2019-06-07T07:05:15.057Z,7.10
2019-06-07T07:07:50.024Z,6.27
2019-06-07T07:10:43.100Z,6.10
2019-06-07T07:13:16.718Z,6.40
2019-06-07T07:15:55.158Z,6.00
2019-06-07T07:18:22.289Z,5.53
2019-06-07T07:20:57.257Z,5.37
2019-06-07T07:23:28.650Z,6.07
2019-06-07T07:26:00.605Z,5.03
2019-06-07T07:28:32.540Z,4.67
2019-06-07T07:31:04.550Z,4.57
2019-06-07T07:36:28.674Z,5.07
2019-06-07T07:38:45.617Z,4.10
2019-06-07T07:41:18.077Z,4.33
2019-06-07T07:44:00.457Z,4.23
2019-06-07T07:46:29.721Z,3.70
2019-06-07T07:48:58.415Z,4.00
2019-06-07T07:51:30.533Z,4.50
2019-06-07T07:54:10.771Z,4.30
2019-06-07T07:56:36.433Z,4.30
2019-06-07T07:59:08.711Z,4.00
2019-06-07T08:01:41.153Z,3.80
2019-06-07T08:04:13.281Z,3.37
2019-06-07T08:06:46.671Z,3.50
2019-06-07T08:09:19.237Z,3.50
2019-06-07T08:11:53.032Z,4.90
2019-06-07T08:14:25.817Z,3.67
2019-06-07T08:16:59.303Z,2.90
2019-06-07T08:19:31.785Z,2.50
2019-06-07T08:22:04.214Z,3.30
2019-06-07T08:24:36.510Z,3.00
2019-06-07T08:27:25.180Z,2.90
2019-06-07T08:29:45.376Z,2.90
2019-06-07T08:32:16.216Z,2.50
2019-06-07T08:34:51.807Z,2.40
2019-06-07T08:37:22.686Z,2.70
2019-06-07T08:39:58.856Z,2.50
2019-06-07T08:42:37.305Z,2.20
2019-06-07T08:45:09.570Z,2.47
2019-06-07T08:47:42.070Z,2.20
2019-06-07T08:50:16.425Z,2.17
2019-06-07T08:52:48.550Z,2.47
2019-06-07T08:55:20.562Z,2.57
2019-06-07T08:57:57.260Z,2.07
2019-06-07T09:00:46.897Z,1.80
2019-06-07T09:03:06.451Z,2.23
2019-06-07T09:05:36.150Z,1.90
2019-06-07T09:08:28.247Z,2.07
2019-06-07T09:10:42.316Z,2.17
2019-06-07T09:13:14.735Z,2.10
2019-06-07T09:15:47.189Z,2.63
2019-06-07T09:18:42.697Z,1.90
2019-06-07T09:20:53.683Z,1.90
2019-06-07T09:23:26.242Z,2.00
2019-06-07T09:26:06.377Z,2.37
2019-06-07T09:28:32.617Z,1.90
2019-06-07T09:31:09.877Z,2.17
2019-06-07T09:33:38.224Z,2.30
2019-06-07T09:36:12.844Z,2.10
2019-06-07T09:38:45.797Z,2.67
2019-06-07T09:41:18.257Z,2.67
2019-06-07T09:44:21.288Z,2.30
2019-06-07T09:46:24.030Z,2.67
2019-06-07T09:49:20.963Z,2.60
2019-06-07T09:51:32.265Z,2.73
2019-06-07T09:54:08.256Z,2.83
2019-06-07T09:56:38.251Z,2.57
2019-06-07T09:59:12.833Z,2.43
2019-06-07T10:01:47.461Z,1.93
2019-06-07T10:04:31.312Z,2.40
2019-06-07T10:07:10.476Z,2.33
2019-06-07T10:12:08.957Z,2.80
2019-06-07T10:14:44.076Z,2.60
2019-06-07T10:17:16.633Z,2.93
2019-06-07T10:19:49.069Z,2.40
2019-06-07T10:22:21.529Z,2.60
2019-06-07T10:25:13.046Z,2.27
2019-06-07T10:27:45.333Z,2.67
2019-06-07T10:30:17.917Z,2.57
2019-06-07T10:32:52.190Z,3.10
2019-06-07T10:35:25.268Z,2.80
2019-06-07T10:37:58.373Z,2.87
2019-06-07T10:40:30.821Z,2.77
2019-06-07T10:43:03.261Z,2.60
2019-06-07T10:45:35.707Z,2.83
2019-06-07T10:48:07.830Z,3.00
2019-06-07T10:50:40.080Z,2.70
2019-06-07T10:53:12.656Z,3.13
2019-06-07T10:55:45.042Z,2.80
2019-06-07T10:58:17.170Z,2.50
2019-06-07T11:00:49.198Z,2.37
2019-06-07T11:03:22.388Z,2.53
2019-06-07T11:05:55.802Z,2.37
2019-06-07T11:08:28.245Z,2.20
2019-06-07T11:11:00.667Z,2.70
2019-06-07T11:13:34.190Z,2.77
2019-06-07T11:16:06.996Z,2.53
2019-06-07T11:18:39.109Z,3.00
2019-06-07T11:21:12.179Z,2.80
2019-06-07T11:23:44.586Z,3.47
2019-06-07T11:26:16.709Z,3.13
2019-06-07T11:28:48.973Z,2.93
2019-06-07T11:31:21.105Z,2.33
2019-06-07T11:33:53.129Z,2.90
2019-06-07T11:36:25.428Z,2.80
2019-06-07T11:38:57.510Z,2.67
2019-06-07T11:41:29.777Z,2.47
2019-06-07T11:44:01.914Z,2.50
2019-06-07T11:46:34.172Z,3.40
2019-06-07T11:49:06.684Z,2.70
2019-06-07T11:51:38.803Z,2.43
2019-06-07T11:54:12.015Z,2.70
2019-06-07T11:56:44.666Z,2.47
2019-06-07T11:59:17.479Z,2.50
2019-06-07T12:01:49.854Z,2.63
2019-06-07T12:04:34.438Z,2.50
2019-06-07T12:06:56.574Z,2.70
2019-06-07T12:09:29.082Z,2.43
2019-06-07T12:12:01.650Z,3.20
2019-06-07T12:14:34.758Z,2.80
2019-06-07T12:17:08.926Z,2.30
2019-06-07T12:19:42.042Z,2.53
2019-06-07T12:22:15.762Z,2.60
2019-06-07T12:24:48.616Z,1.97
2019-06-07T12:27:21.010Z,3.03
2019-06-07T12:29:54.013Z,3.13
2019-06-07T12:32:26.284Z,2.70
2019-06-07T12:34:58.432Z,2.30
2019-06-07T12:37:43.110Z,2.90
2019-06-07T12:40:10.114Z,2.90
2019-06-07T12:42:42.298Z,2.30
2019-06-07T12:45:35.266Z,3.53
2019-06-07T12:47:49.713Z,2.50
2019-06-07T12:50:23.799Z,2.47
2019-06-07T12:52:56.276Z,2.70
2019-06-07T12:55:28.532Z,2.73
2019-06-07T12:58:00.970Z,2.60
2019-06-07T13:00:33.426Z,2.63
2019-06-07T13:03:06.701Z,2.80
2019-06-07T13:05:39.158Z,2.13
2019-06-07T13:08:11.594Z,2.67
2019-06-07T13:10:44.050Z,2.80
2019-06-07T13:13:17.832Z,2.67
2019-06-07T13:15:50.810Z,2.87
2019-06-07T13:18:25.138Z,2.77
2019-06-07T13:20:57.497Z,2.70
2019-06-07T13:23:30.690Z,2.63
2019-06-07T13:26:02.986Z,2.40
2019-06-07T13:28:35.260Z,2.27
2019-06-07T13:31:07.655Z,2.33
2019-06-07T13:33:40.091Z,2.47
2019-06-07T13:36:12.565Z,2.40
2019-06-07T13:38:44.684Z,2.13
2019-06-07T13:41:31.119Z,2.43
2019-06-07T13:43:51.747Z,2.80
2019-06-07T13:46:25.313Z,2.57
2019-06-07T13:48:59.966Z,2.67
2019-06-07T13:51:33.358Z,2.50
2019-06-07T13:54:06.018Z,2.60
2019-06-07T13:57:00.272Z,2.57
2019-06-07T13:59:12.308Z,2.50
2019-06-07T14:01:44.267Z,2.77
2019-06-07T14:04:16.210Z,2.27
2019-06-07T14:06:48.485Z,2.60
2019-06-07T14:09:21.171Z,3.23
2019-06-07T14:11:53.659Z,2.50
2019-06-07T14:14:27.467Z,3.13
2019-06-07T14:17:00.017Z,3.07
2019-06-07T14:19:32.579Z,2.53
2019-06-07T14:22:04.829Z,2.80
2019-06-07T14:24:36.719Z,2.90
2019-06-07T14:27:08.663Z,3.00
2019-06-07T14:29:40.986Z,3.00
2019-06-07T14:32:13.143Z,2.30
2019-06-07T14:34:46.090Z,3.20
2019-06-07T14:37:18.238Z,2.83
2019-06-07T14:39:50.174Z,2.50
2019-06-07T14:42:23.430Z,2.60
2019-06-07T14:44:55.378Z,2.27
2019-06-07T14:47:27.930Z,2.90
2019-06-07T14:50:01.264Z,2.90
2019-06-07T14:52:35.101Z,2.80
2019-06-07T14:55:10.654Z,2.43
2019-06-07T14:57:42.694Z,2.97
2019-06-07T15:00:16.928Z,2.80
2019-06-07T15:02:49.926Z,2.80
2019-06-07T15:05:31.231Z,2.40
2019-06-07T15:08:04.229Z,2.67
2019-06-07T15:10:36.664Z,2.37
2019-06-07T15:13:09.358Z,2.60
2019-06-07T15:15:41.783Z,2.60
2019-06-07T15:18:14.244Z,2.57
2019-06-07T15:20:46.342Z,2.83
2019-06-07T15:23:19.607Z,2.70
2019-06-07T15:25:54.010Z,3.20
2019-06-07T15:28:27.688Z,2.80
2019-06-07T15:31:00.014Z,2.63
2019-06-07T15:33:34.239Z,2.63
2019-06-07T15:36:07.430Z,2.33
2019-06-07T15:38:39.620Z,2.43
2019-06-07T15:41:12.019Z,2.20
2019-06-07T15:43:45.122Z,2.60
2019-06-07T15:46:19.353Z,2.53
2019-06-07T15:48:51.817Z,2.07
2019-06-07T15:51:25.373Z,2.57
2019-06-07T15:53:57.931Z,2.60
2019-06-07T15:56:36.786Z,2.37
2019-06-07T15:59:09.499Z,2.90
2019-06-07T16:01:42.305Z,2.90
2019-06-07T16:04:14.561Z,2.70
2019-06-07T16:06:46.812Z,2.97
2019-06-07T16:09:20.838Z,3.13
2019-06-07T16:11:52.790Z,2.70
2019-06-07T16:14:25.050Z,2.57
2019-06-07T16:16:57.172Z,3.10
2019-06-07T16:19:29.438Z,2.40
2019-06-07T16:22:01.950Z,3.90
2019-06-07T16:24:35.599Z,3.03
2019-06-07T16:27:10.602Z,2.43
2019-06-07T16:29:42.881Z,3.20
2019-06-07T16:32:16.358Z,2.57
2019-06-07T16:34:48.474Z,2.77
2019-06-07T16:37:20.756Z,3.03
2019-06-07T16:39:52.863Z,3.23
2019-06-07T16:42:25.157Z,2.90
2019-06-07T16:44:57.291Z,2.80
2019-06-07T16:47:30.192Z,3.17
2019-06-07T16:50:02.175Z,3.40
2019-06-07T16:52:34.178Z,3.43
2019-06-07T16:55:11.463Z,3.60
2019-06-07T16:57:45.062Z,3.40
2019-06-07T17:00:20.258Z,3.30
2019-06-07T17:02:52.264Z,3.57
2019-06-07T17:05:25.247Z,3.30
2019-06-07T17:07:59.503Z,3.60
2019-06-07T17:10:33.946Z,3.70
2019-06-07T17:13:08.126Z,3.60
2019-06-07T17:15:40.721Z,3.40
2019-06-07T17:18:13.314Z,3.93
2019-06-07T17:20:47.026Z,3.33
2019-06-07T17:23:19.771Z,3.23
2019-06-07T17:25:54.207Z,3.60
2019-06-07T17:28:26.659Z,3.73
2019-06-07T17:30:58.779Z,2.70
2019-06-07T17:33:30.711Z,2.97
2019-06-07T17:36:02.999Z,2.80
2019-06-07T17:38:35.447Z,3.00
2019-06-07T17:41:08.135Z,2.87
2019-06-07T17:43:51.747Z,3.10
2019-06-07T17:46:14.298Z,3.20
2019-06-07T17:48:47.508Z,2.90
2019-06-07T17:51:20.771Z,3.17
2019-06-07T17:53:55.199Z,3.10
2019-06-07T17:56:27.332Z,3.17
2019-06-07T17:58:59.268Z,3.13
2019-06-07T18:01:41.514Z,2.90
2019-06-07T18:04:06.887Z,3.07
2019-06-07T18:06:43.562Z,2.87
2019-06-07T18:09:17.135Z,3.30
2019-06-07T18:11:50.023Z,2.90
2019-06-07T18:14:22.006Z,3.27
2019-06-07T18:16:54.837Z,3.63
2019-06-07T18:19:28.187Z,3.37
2019-06-07T18:22:02.254Z,3.97
2019-06-07T18:24:37.599Z,3.63
2019-06-07T18:27:10.187Z,3.33
2019-06-07T18:29:43.468Z,4.63
2019-06-07T18:32:15.905Z,4.30
2019-06-07T18:34:48.743Z,3.33
2019-06-07T18:37:20.980Z,3.70
2019-06-07T18:39:55.731Z,3.90
2019-06-07T18:42:27.859Z,4.30
2019-06-07T18:45:00.759Z,3.67
2019-06-07T18:47:33.931Z,3.80
2019-06-07T18:50:09.498Z,4.90
2019-06-07T18:52:43.422Z,4.00
2019-06-07T18:55:15.786Z,3.87
2019-06-07T18:57:50.171Z,4.00
2019-06-07T19:00:24.410Z,3.93
2019-06-07T19:02:56.327Z,3.80
2019-06-07T19:05:28.327Z,4.20
2019-06-07T19:08:02.351Z,3.60
2019-06-07T19:10:34.354Z,4.47
2019-06-07T19:13:06.475Z,3.80
2019-06-07T19:15:38.407Z,4.30
2019-06-07T19:18:10.378Z,4.47
2019-06-07T19:20:42.308Z,4.07
2019-06-07T19:23:14.670Z,3.90
2019-06-07T19:25:47.179Z,3.63
2019-06-07T19:28:19.321Z,4.20
2019-06-07T19:30:53.006Z,4.60
2019-06-07T19:33:25.075Z,5.13
2019-06-07T19:35:57.450Z,4.57
2019-06-07T19:38:29.519Z,4.30
2019-06-07T19:41:17.618Z,4.60
2019-06-07T19:43:35.643Z,4.23
2019-06-07T19:46:07.559Z,4.77
2019-06-07T19:48:39.511Z,4.23
2019-06-07T19:51:11.479Z,4.83
2019-06-07T19:53:43.483Z,4.90
2019-06-07T19:56:15.423Z,4.80
2019-06-07T19:58:47.383Z,4.50
2019-06-07T20:01:19.631Z,4.10
2019-06-07T20:03:51.791Z,4.70
2019-06-07T20:06:23.725Z,4.73
2019-06-07T20:08:56.547Z,4.60
2019-06-07T20:11:28.536Z,4.80
2019-06-07T20:14:00.828Z,4.60
2019-06-07T20:17:16.139Z,4.13
2019-06-07T20:19:48.083Z,4.13
2019-06-07T20:22:20.017Z,5.27
2019-06-07T20:24:51.952Z,4.70
2019-06-07T20:27:23.895Z,4.73
2019-06-07T20:29:56.146Z,4.47
2019-06-07T20:32:28.075Z,5.07
2019-06-07T20:35:00.004Z,4.43
2019-06-07T20:37:31.975Z,5.53
2019-06-07T20:40:22.710Z,4.00
2019-06-07T20:42:46.242Z,4.27
2019-06-07T20:45:32.587Z,4.03
2019-06-07T20:47:54.049Z,2.73
2019-06-07T20:50:25.980Z,3.40
2019-06-07T20:52:59.805Z,2.07
2019-06-07T20:55:32.527Z,2.03
2019-06-07T20:58:05.492Z,1.83
2019-06-07T21:00:37.921Z,1.60
2019-06-07T21:03:10.995Z,1.83
2019-06-07T21:05:43.341Z,1.53
2019-06-07T21:08:15.259Z,1.50
2019-06-07T21:10:47.255Z,1.40
2019-06-07T21:13:21.406Z,1.57
2019-06-07T21:15:53.565Z,1.07
2019-06-07T21:18:26.739Z,1.33
2019-06-07T21:21:00.222Z,1.10
2019-06-07T21:23:32.185Z,1.40
2019-06-07T21:26:04.764Z,1.30
2019-06-07T21:28:39.653Z,1.10
2019-06-07T21:31:10.584Z,1.13
2019-06-07T21:33:42.656Z,1.10
2019-06-07T21:36:14.611Z,1.60
2019-06-07T21:38:46.543Z,0.90
2019-06-07T21:41:18.499Z,1.60
2019-06-07T21:43:50.562Z,1.10
2019-06-07T21:46:23.439Z,1.17
2019-06-07T21:48:55.391Z,0.90
2019-06-07T21:51:30.912Z,1.00
2019-06-07T21:54:06.656Z,1.30
2019-06-07T21:56:36.746Z,0.90
2019-06-07T21:59:09.325Z,1.33
2019-06-07T22:01:41.868Z,1.13
2019-06-07T22:04:13.879Z,0.90
2019-06-07T22:06:45.849Z,0.80
2019-06-07T22:09:19.128Z,1.03
2019-06-07T22:11:51.493Z,0.90
2019-06-07T22:14:23.752Z,0.80
2019-06-07T22:16:55.879Z,1.30
2019-06-07T22:19:27.814Z,0.90
2019-06-07T22:22:02.937Z,0.80
2019-06-07T22:24:34.707Z,1.00
2019-06-07T22:27:07.132Z,0.80
2019-06-07T22:29:39.063Z,0.93
2019-06-07T22:32:12.866Z,1.10
2019-06-07T22:34:46.087Z,0.70
2019-06-07T22:37:21.343Z,1.00
2019-06-07T22:39:51.667Z,0.90
2019-06-07T22:42:23.623Z,1.03
2019-06-07T22:44:55.871Z,0.90
2019-06-07T22:47:28.365Z,0.90
2019-06-07T22:50:00.308Z,0.70
2019-06-07T22:52:32.247Z,0.73
2019-06-07T22:55:06.103Z,1.07
2019-06-07T22:57:57.420Z,0.90
2019-06-07T23:00:31.688Z,0.90
2019-06-07T23:03:03.833Z,0.90
2019-06-07T23:05:36.083Z,0.80
2019-06-07T23:08:08.815Z,0.90
2019-06-07T23:10:40.819Z,0.90
2019-06-07T23:13:13.581Z,1.13
2019-06-07T23:15:45.607Z,0.90
2019-06-07T23:18:17.892Z,0.90
2019-06-07T23:20:50.012Z,0.90
2019-06-07T23:23:21.996Z,0.90
2019-06-07T23:25:53.927Z,0.90
2019-06-07T23:28:26.489Z,0.90
2019-06-07T23:30:58.632Z,1.20
2019-06-07T23:33:30.899Z,0.90
2019-06-07T23:36:04.297Z,1.00
2019-06-07T23:38:37.112Z,1.00
2019-06-07T23:41:09.215Z,0.80
2019-06-07T23:43:41.473Z,1.00
2019-06-07T23:46:13.864Z,0.80
2019-06-07T23:48:45.823Z,0.90
2019-06-07T23:51:17.809Z,1.10
2019-06-07T23:53:49.715Z,0.90
2019-06-07T23:56:22.305Z,0.90
2019-06-07T23:58:54.420Z,1.37
